PWSweather.com
Personal Weather Stations
Station Observations
ISTOCKPO4
Cheadle HulmeGB SK8 6NZ

Cheadle HulmeGB SK8 6NZ

Lat: 53.363783, Lon: -2.1948438

Elevation: 261

Station Type: Davis VP2 with Daytime FARS

http://www.cheadlehulmeweather.co.uk

High Low Average
Temperature 53.2°F11.8°C 34.5°F1.4°C 46.6°F8.1°C
Dew Point 43.4°F6.3°C 32.2°F0.1°C 39.8°F4.3°C
Winds 17.0 mph 27.4 kmh 2.0 mph 3.2 kmh 10.0 mph SE16.1 kmh SE
Wind Gusts 33.0 mph53.1 kmh 3.0 mph4.8 kmh 18.0 mph29.0 kmh
Humidity 92% 66% 77%
Pressure 29.73 in1006.8 mb 29.22 in989.5 mb -
Precipitation 0.00 in0.0 mm - -
Hour Temp Dew Point Humidity Winds Wind Gusts Pressure Precip Precip Rate Daily Precip Total
12:00 AM 35.2°F1.8°C 33.1°F0.6°C 92% 2.0 mph SE3.2 kmh SE 3.0 mph4.8 kmh 29.73 in1006.8 mb 0.00 in0.0 mm 0.00 in0.0 mm 0.00 in0.0 mm
12:15 AM 35.1°F1.7°C 33.0°F0.6°C 92% 2.0 mph SE3.2 kmh SE 3.0 mph4.8 kmh 29.73 in1006.8 mb 0.00 in0.0 mm 0.00 in0.0 mm 0.00 in0.0 mm
12:30 AM 34.5°F1.4°C 32.2°F0.1°C 91% 2.0 mph SE3.2 kmh SE 3.0 mph4.8 kmh 29.73 in1006.8 mb 0.00 in0.0 mm 0.00 in0.0 mm 0.00 in0.0 mm
12:45 AM 34.5°F1.4°C 32.4°F0.2°C 92% 3.0 mph SE4.8 kmh SE 4.0 mph6.4 kmh 29.73 in1006.8 mb 0.00 in0.0 mm 0.00 in0.0 mm 0.00 in0.0 mm
01:00 AM 35.2°F1.8°C 33.1°F0.6°C 92% 3.0 mph SE4.8 kmh SE 5.0 mph8.0 kmh 29.73 in1006.8 mb 0.00 in0.0 mm 0.00 in0.0 mm 0.00 in0.0 mm
01:15 AM 36.7°F2.6°C 34.6°F1.4°C 92% 4.0 mph SE6.4 kmh SE 6.0 mph9.7 kmh 29.72 in1006.4 mb 0.00 in0.0 mm 0.00 in0.0 mm 0.00 in0.0 mm
01:30 AM 37.8°F3.2°C 35.4°F1.9°C 91% 4.0 mph SE6.4 kmh SE 6.0 mph9.7 kmh 29.72 in1006.4 mb 0.00 in0.0 mm 0.00 in0.0 mm 0.00 in0.0 mm
01:45 AM 37.8°F3.2°C 35.1°F1.7°C 90% 3.0 mph SE4.8 kmh SE 6.0 mph9.7 kmh 29.71 in1006.1 mb 0.00 in0.0 mm 0.00 in0.0 mm 0.00 in0.0 mm
02:00 AM 37.6°F3.1°C 34.6°F1.4°C 89% 3.0 mph SE4.8 kmh SE 4.0 mph6.4 kmh 29.70 in1005.8 mb 0.00 in0.0 mm 0.00 in0.0 mm 0.00 in0.0 mm
02:15 AM 37.8°F3.2°C 34.5°F1.4°C 88% 4.0 mph SE6.4 kmh SE 7.0 mph11.3 kmh 29.70 in1005.8 mb 0.00 in0.0 mm 0.00 in0.0 mm 0.00 in0.0 mm
02:30 AM 38.5°F3.6°C 34.9°F1.6°C 87% 4.0 mph SE6.4 kmh SE 7.0 mph11.3 kmh 29.69 in1005.4 mb 0.00 in0.0 mm 0.00 in0.0 mm 0.00 in0.0 mm
02:45 AM 38.8°F3.8°C 35.0°F1.7°C 86% 3.0 mph SE4.8 kmh SE 5.0 mph8.0 kmh 29.68 in1005.1 mb 0.00 in0.0 mm 0.00 in0.0 mm 0.00 in0.0 mm
03:00 AM 39.0°F3.9°C 35.2°F1.8°C 86% 4.0 mph SE6.4 kmh SE 8.0 mph12.9 kmh 29.67 in1004.7 mb 0.00 in0.0 mm 0.00 in0.0 mm 0.00 in0.0 mm
03:15 AM 39.7°F4.3°C 35.6°F2.0°C 85% 5.0 mph SE8.0 kmh SE 8.0 mph12.9 kmh 29.67 in1004.7 mb 0.00 in0.0 mm 0.00 in0.0 mm 0.00 in0.0 mm
03:30 AM 40.1°F4.5°C 36.0°F2.2°C 85% 5.0 mph SE8.0 kmh SE 9.0 mph14.5 kmh 29.66 in1004.4 mb 0.00 in0.0 mm 0.00 in0.0 mm 0.00 in0.0 mm
03:45 AM 40.5°F4.7°C 36.3°F2.4°C 85% 5.0 mph SE8.0 kmh SE 10.0 mph16.1 kmh 29.66 in1004.4 mb 0.00 in0.0 mm 0.00 in0.0 mm 0.00 in0.0 mm
04:00 AM 41.2°F5.1°C 36.4°F2.4°C 83% 7.0 mph SSE11.3 kmh SSE 13.0 mph20.9 kmh 29.66 in1004.4 mb 0.00 in0.0 mm 0.00 in0.0 mm 0.00 in0.0 mm
04:15 AM 41.4°F5.2°C 36.3°F2.4°C 82% 6.0 mph SSE9.7 kmh SSE 13.0 mph20.9 kmh 29.65 in1004.1 mb 0.00 in0.0 mm 0.00 in0.0 mm 0.00 in0.0 mm
04:30 AM 41.5°F5.3°C 36.5°F2.5°C 82% 8.0 mph SE12.9 kmh SE 14.0 mph22.5 kmh 29.65 in1004.1 mb 0.00 in0.0 mm 0.00 in0.0 mm 0.00 in0.0 mm
04:45 AM 41.5°F5.3°C 36.5°F2.5°C 82% 10.0 mph SE16.1 kmh SE 16.0 mph25.7 kmh 29.64 in1003.7 mb 0.00 in0.0 mm 0.00 in0.0 mm 0.00 in0.0 mm
05:00 AM 41.9°F5.5°C 36.5°F2.5°C 81% 8.0 mph SE12.9 kmh SE 16.0 mph25.7 kmh 29.64 in1003.7 mb 0.00 in0.0 mm 0.00 in0.0 mm 0.00 in0.0 mm
05:15 AM 41.9°F5.5°C 36.5°F2.5°C 81% 8.0 mph SE12.9 kmh SE 14.0 mph22.5 kmh 29.64 in1003.7 mb 0.00 in0.0 mm 0.00 in0.0 mm 0.00 in0.0 mm
05:30 AM 42.1°F5.6°C 37.0°F2.8°C 82% 7.0 mph SE11.3 kmh SE 12.0 mph19.3 kmh 29.63 in1003.4 mb 0.00 in0.0 mm 0.00 in0.0 mm 0.00 in0.0 mm
05:45 AM 42.1°F5.6°C 37.0°F2.8°C 82% 8.0 mph SE12.9 kmh SE 14.0 mph22.5 kmh 29.62 in1003.0 mb 0.00 in0.0 mm 0.00 in0.0 mm 0.00 in0.0 mm
06:00 AM 42.4°F5.8°C 37.6°F3.1°C 83% 10.0 mph SE16.1 kmh SE 17.0 mph27.4 kmh 29.61 in1002.7 mb 0.00 in0.0 mm 0.00 in0.0 mm 0.00 in0.0 mm
06:15 AM 42.4°F5.8°C 37.3°F2.9°C 82% 10.0 mph SE16.1 kmh SE 19.0 mph30.6 kmh 29.59 in1002.0 mb 0.00 in0.0 mm 0.00 in0.0 mm 0.00 in0.0 mm
06:30 AM 41.7°F5.4°C 36.9°F2.7°C 83% 9.0 mph SE14.5 kmh SE 17.0 mph27.4 kmh 29.60 in1002.4 mb 0.00 in0.0 mm 0.00 in0.0 mm 0.00 in0.0 mm
06:45 AM 41.2°F5.1°C 36.7°F2.6°C 84% 8.0 mph SE12.9 kmh SE 14.0 mph22.5 kmh 29.61 in1002.7 mb 0.00 in0.0 mm 0.00 in0.0 mm 0.00 in0.0 mm
07:00 AM 41.5°F5.3°C 37.4°F3.0°C 85% 8.0 mph SE12.9 kmh SE 20.0 mph32.2 kmh 29.61 in1002.7 mb 0.00 in0.0 mm 0.00 in0.0 mm 0.00 in0.0 mm
07:15 AM 42.6°F5.9°C 38.4°F3.6°C 85% 10.0 mph SE16.1 kmh SE 17.0 mph27.4 kmh 29.61 in1002.7 mb 0.00 in0.0 mm 0.00 in0.0 mm 0.00 in0.0 mm
07:30 AM 42.6°F5.9°C 38.4°F3.6°C 85% 11.0 mph SE17.7 kmh SE 18.0 mph29.0 kmh 29.60 in1002.4 mb 0.00 in0.0 mm 0.00 in0.0 mm 0.00 in0.0 mm
07:45 AM 43.2°F6.2°C 39.3°F4.1°C 86% 9.0 mph SE14.5 kmh SE 19.0 mph30.6 kmh 29.59 in1002.0 mb 0.00 in0.0 mm 0.00 in0.0 mm 0.00 in0.0 mm
08:00 AM 43.5°F6.4°C 39.6°F4.2°C 86% 9.0 mph SE14.5 kmh SE 17.0 mph27.4 kmh 29.58 in1001.7 mb 0.00 in0.0 mm 0.00 in0.0 mm 0.00 in0.0 mm
08:15 AM 44.4°F6.9°C 40.2°F4.6°C 85% 9.0 mph SE14.5 kmh SE 20.0 mph32.2 kmh 29.57 in1001.4 mb 0.00 in0.0 mm 0.00 in0.0 mm 0.00 in0.0 mm
08:30 AM 45.3°F7.4°C 40.8°F4.9°C 84% 9.0 mph SE14.5 kmh SE 17.0 mph27.4 kmh 29.57 in1001.4 mb 0.00 in0.0 mm 0.00 in0.0 mm 0.00 in0.0 mm
08:45 AM 45.9°F7.7°C 41.0°F5.0°C 83% 11.0 mph SE17.7 kmh SE 20.0 mph32.2 kmh 29.57 in1001.4 mb 0.00 in0.0 mm 0.00 in0.0 mm 0.00 in0.0 mm
09:00 AM 45.9°F7.7°C 40.7°F4.8°C 82% 11.0 mph SE17.7 kmh SE 24.0 mph38.6 kmh 29.56 in1001.0 mb 0.00 in0.0 mm 0.00 in0.0 mm 0.00 in0.0 mm
09:15 AM 46.0°F7.8°C 40.9°F4.9°C 82% 10.0 mph SE16.1 kmh SE 18.0 mph29.0 kmh 29.55 in1000.7 mb 0.00 in0.0 mm 0.00 in0.0 mm 0.00 in0.0 mm
09:30 AM 46.2°F7.9°C 41.0°F5.0°C 82% 9.0 mph SE14.5 kmh SE 19.0 mph30.6 kmh 29.55 in1000.7 mb 0.00 in0.0 mm 0.00 in0.0 mm 0.00 in0.0 mm
09:45 AM 46.9°F8.3°C 41.7°F5.4°C 82% 9.0 mph SE14.5 kmh SE 17.0 mph27.4 kmh 29.55 in1000.7 mb 0.00 in0.0 mm 0.00 in0.0 mm 0.00 in0.0 mm
10:00 AM 47.7°F8.7°C 41.5°F5.3°C 79% 12.0 mph SE19.3 kmh SE 21.0 mph33.8 kmh 29.54 in1000.3 mb 0.00 in0.0 mm 0.00 in0.0 mm 0.00 in0.0 mm
10:15 AM 48.4°F9.1°C 42.2°F5.7°C 79% 11.0 mph SE17.7 kmh SE 19.0 mph30.6 kmh 29.53 in1000.0 mb 0.00 in0.0 mm 0.00 in0.0 mm 0.00 in0.0 mm
10:30 AM 49.5°F9.7°C 42.2°F5.7°C 76% 11.0 mph SE17.7 kmh SE 21.0 mph33.8 kmh 29.53 in1000.0 mb 0.00 in0.0 mm 0.00 in0.0 mm 0.00 in0.0 mm
10:45 AM 51.3°F10.7°C 42.5°F5.8°C 72% 12.0 mph SE19.3 kmh SE 23.0 mph37.0 kmh 29.52 in999.7 mb 0.00 in0.0 mm 0.00 in0.0 mm 0.00 in0.0 mm
11:00 AM 51.3°F10.7°C 42.2°F5.7°C 71% 13.0 mph SE20.9 kmh SE 25.0 mph40.2 kmh 29.51 in999.3 mb 0.00 in0.0 mm 0.00 in0.0 mm 0.00 in0.0 mm
11:15 AM 51.3°F10.7°C 42.2°F5.7°C 71% 14.0 mph SE22.5 kmh SE 23.0 mph37.0 kmh 29.51 in999.3 mb 0.00 in0.0 mm 0.00 in0.0 mm 0.00 in0.0 mm
11:30 AM 51.4°F10.8°C 42.0°F5.6°C 70% 13.0 mph SE20.9 kmh SE 23.0 mph37.0 kmh 29.50 in999.0 mb 0.00 in0.0 mm 0.00 in0.0 mm 0.00 in0.0 mm
11:45 AM 52.9°F11.6°C 42.6°F5.9°C 68% 14.0 mph SE22.5 kmh SE 26.0 mph41.8 kmh 29.49 in998.6 mb 0.00 in0.0 mm 0.00 in0.0 mm 0.00 in0.0 mm
12:00 PM 53.1°F11.7°C 42.0°F5.6°C 66% 17.0 mph SE27.4 kmh SE 31.0 mph49.9 kmh 29.48 in998.3 mb 0.00 in0.0 mm 0.00 in0.0 mm 0.00 in0.0 mm
12:15 PM 53.2°F11.8°C 42.6°F5.9°C 67% 13.0 mph SE20.9 kmh SE 22.0 mph35.4 kmh 29.48 in998.3 mb 0.00 in0.0 mm 0.00 in0.0 mm 0.00 in0.0 mm
12:30 PM 52.5°F11.4°C 41.9°F5.5°C 67% 13.0 mph SE20.9 kmh SE 23.0 mph37.0 kmh 29.47 in998.0 mb 0.00 in0.0 mm 0.00 in0.0 mm 0.00 in0.0 mm
12:45 PM 52.5°F11.4°C 41.9°F5.5°C 67% 13.0 mph SE20.9 kmh SE 25.0 mph40.2 kmh 29.47 in998.0 mb 0.00 in0.0 mm 0.00 in0.0 mm 0.00 in0.0 mm
01:00 PM 52.7°F11.5°C 42.4°F5.8°C 68% 13.0 mph SE20.9 kmh SE 22.0 mph35.4 kmh 29.46 in997.6 mb 0.00 in0.0 mm 0.00 in0.0 mm 0.00 in0.0 mm
01:15 PM 52.2°F11.2°C 42.3°F5.7°C 69% 14.0 mph SE22.5 kmh SE 25.0 mph40.2 kmh 29.45 in997.3 mb 0.00 in0.0 mm 0.00 in0.0 mm 0.00 in0.0 mm
01:30 PM 51.8°F11.0°C 42.7°F5.9°C 71% 13.0 mph SE20.9 kmh SE 25.0 mph40.2 kmh 29.45 in997.3 mb 0.00 in0.0 mm 0.00 in0.0 mm 0.00 in0.0 mm
01:45 PM 51.6°F10.9°C 42.5°F5.8°C 71% 15.0 mph SE24.1 kmh SE 23.0 mph37.0 kmh 29.44 in997.0 mb 0.00 in0.0 mm 0.00 in0.0 mm 0.00 in0.0 mm
02:00 PM 51.8°F11.0°C 42.7°F5.9°C 71% 14.0 mph SE22.5 kmh SE 28.0 mph45.1 kmh 29.44 in997.0 mb 0.00 in0.0 mm 0.00 in0.0 mm 0.00 in0.0 mm
02:15 PM 51.6°F10.9°C 42.9°F6.1°C 72% 11.0 mph SE17.7 kmh SE 20.0 mph32.2 kmh 29.43 in996.6 mb 0.00 in0.0 mm 0.00 in0.0 mm 0.00 in0.0 mm
02:30 PM 51.6°F10.9°C 42.9°F6.1°C 72% 12.0 mph SE19.3 kmh SE 21.0 mph33.8 kmh 29.42 in996.3 mb 0.00 in0.0 mm 0.00 in0.0 mm 0.00 in0.0 mm
02:45 PM 52.0°F11.1°C 43.2°F6.2°C 72% 11.0 mph SE17.7 kmh SE 21.0 mph33.8 kmh 29.41 in995.9 mb 0.00 in0.0 mm 0.00 in0.0 mm 0.00 in0.0 mm
03:00 PM 52.2°F11.2°C 43.4°F6.3°C 72% 10.0 mph SE16.1 kmh SE 19.0 mph30.6 kmh 29.40 in995.6 mb 0.00 in0.0 mm 0.00 in0.0 mm 0.00 in0.0 mm
03:15 PM 52.2°F11.2°C 43.0°F6.1°C 71% 15.0 mph SE24.1 kmh SE 27.0 mph43.5 kmh 29.39 in995.3 mb 0.00 in0.0 mm 0.00 in0.0 mm 0.00 in0.0 mm
03:30 PM 52.3°F11.3°C 43.2°F6.2°C 71% 12.0 mph SE19.3 kmh SE 21.0 mph33.8 kmh 29.39 in995.3 mb 0.00 in0.0 mm 0.00 in0.0 mm 0.00 in0.0 mm
03:45 PM 52.5°F11.4°C 43.0°F6.1°C 70% 12.0 mph SE19.3 kmh SE 26.0 mph41.8 kmh 29.38 in994.9 mb 0.00 in0.0 mm 0.00 in0.0 mm 0.00 in0.0 mm
04:00 PM 52.7°F11.5°C 43.2°F6.2°C 70% 10.0 mph SE16.1 kmh SE 17.0 mph27.4 kmh 29.38 in994.9 mb 0.00 in0.0 mm 0.00 in0.0 mm 0.00 in0.0 mm
04:15 PM 52.9°F11.6°C 43.0°F6.1°C 69% 10.0 mph SE16.1 kmh SE 23.0 mph37.0 kmh 29.38 in994.9 mb 0.00 in0.0 mm 0.00 in0.0 mm 0.00 in0.0 mm
04:30 PM 53.1°F11.7°C 42.0°F5.6°C 66% 13.0 mph SE20.9 kmh SE 22.0 mph35.4 kmh 29.36 in994.2 mb 0.00 in0.0 mm 0.00 in0.0 mm 0.00 in0.0 mm
04:45 PM 52.9°F11.6°C 41.8°F5.4°C 66% 11.0 mph SE17.7 kmh SE 23.0 mph37.0 kmh 29.36 in994.2 mb 0.00 in0.0 mm 0.00 in0.0 mm 0.00 in0.0 mm
05:00 PM 52.5°F11.4°C 41.5°F5.3°C 66% 12.0 mph SE19.3 kmh SE 21.0 mph33.8 kmh 29.36 in994.2 mb 0.00 in0.0 mm 0.00 in0.0 mm 0.00 in0.0 mm
05:15 PM 52.3°F11.3°C 41.7°F5.4°C 67% 11.0 mph SE17.7 kmh SE 22.0 mph35.4 kmh 29.36 in994.2 mb 0.00 in0.0 mm 0.00 in0.0 mm 0.00 in0.0 mm
05:30 PM 52.2°F11.2°C 41.9°F5.5°C 68% 15.0 mph SE24.1 kmh SE 33.0 mph53.1 kmh 29.36 in994.2 mb 0.00 in0.0 mm 0.00 in0.0 mm 0.00 in0.0 mm
05:45 PM 52.0°F11.1°C 42.1°F5.6°C 69% 11.0 mph SE17.7 kmh SE 20.0 mph32.2 kmh 29.36 in994.2 mb 0.00 in0.0 mm 0.00 in0.0 mm 0.00 in0.0 mm
06:00 PM 51.6°F10.9°C 41.8°F5.4°C 69% 10.0 mph SE16.1 kmh SE 19.0 mph30.6 kmh 29.36 in994.2 mb 0.00 in0.0 mm 0.00 in0.0 mm 0.00 in0.0 mm
06:15 PM 51.4°F10.8°C 41.6°F5.3°C 69% 11.0 mph SE17.7 kmh SE 20.0 mph32.2 kmh 29.36 in994.2 mb 0.00 in0.0 mm 0.00 in0.0 mm 0.00 in0.0 mm
06:30 PM 51.1°F10.6°C 41.3°F5.2°C 69% 11.0 mph SE17.7 kmh SE 21.0 mph33.8 kmh 29.35 in993.9 mb 0.00 in0.0 mm 0.00 in0.0 mm 0.00 in0.0 mm
06:45 PM 50.9°F10.5°C 41.5°F5.3°C 70% 10.0 mph SE16.1 kmh SE 17.0 mph27.4 kmh 29.35 in993.9 mb 0.00 in0.0 mm 0.00 in0.0 mm 0.00 in0.0 mm
07:00 PM 50.5°F10.3°C 41.5°F5.3°C 71% 9.0 mph SE14.5 kmh SE 19.0 mph30.6 kmh 29.35 in993.9 mb 0.00 in0.0 mm 0.00 in0.0 mm 0.00 in0.0 mm
07:15 PM 50.2°F10.1°C 41.9°F5.5°C 73% 8.0 mph SE12.9 kmh SE 22.0 mph35.4 kmh 29.34 in993.6 mb 0.00 in0.0 mm 0.00 in0.0 mm 0.00 in0.0 mm
07:30 PM 49.8°F9.9°C 41.5°F5.3°C 73% 10.0 mph SE16.1 kmh SE 20.0 mph32.2 kmh 29.34 in993.6 mb 0.00 in0.0 mm 0.00 in0.0 mm 0.00 in0.0 mm
07:45 PM 49.6°F9.8°C 41.7°F5.4°C 74% 11.0 mph ESE17.7 kmh ESE 23.0 mph37.0 kmh 29.32 in992.9 mb 0.00 in0.0 mm 0.00 in0.0 mm 0.00 in0.0 mm
08:00 PM 49.5°F9.7°C 41.9°F5.5°C 75% 10.0 mph ESE16.1 kmh ESE 20.0 mph32.2 kmh 29.32 in992.9 mb 0.00 in0.0 mm 0.00 in0.0 mm 0.00 in0.0 mm
08:15 PM 49.3°F9.6°C 42.0°F5.6°C 76% 9.0 mph SE14.5 kmh SE 20.0 mph32.2 kmh 29.31 in992.6 mb 0.00 in0.0 mm 0.00 in0.0 mm 0.00 in0.0 mm
08:30 PM 48.9°F9.4°C 41.7°F5.4°C 76% 10.0 mph SE16.1 kmh SE 23.0 mph37.0 kmh 29.31 in992.6 mb 0.00 in0.0 mm 0.00 in0.0 mm 0.00 in0.0 mm
08:45 PM 48.9°F9.4°C 41.7°F5.4°C 76% 11.0 mph SE17.7 kmh SE 19.0 mph30.6 kmh 29.30 in992.2 mb 0.00 in0.0 mm 0.00 in0.0 mm 0.00 in0.0 mm
09:00 PM 48.9°F9.4°C 41.7°F5.4°C 76% 10.0 mph SE16.1 kmh SE 21.0 mph33.8 kmh 29.30 in992.2 mb 0.00 in0.0 mm 0.00 in0.0 mm 0.00 in0.0 mm
09:15 PM 48.7°F9.3°C 41.5°F5.3°C 76% 10.0 mph SE16.1 kmh SE 22.0 mph35.4 kmh 29.29 in991.9 mb 0.00 in0.0 mm 0.00 in0.0 mm 0.00 in0.0 mm
09:30 PM 48.6°F9.2°C 41.3°F5.2°C 76% 10.0 mph SE16.1 kmh SE 25.0 mph40.2 kmh 29.28 in991.5 mb 0.00 in0.0 mm 0.00 in0.0 mm 0.00 in0.0 mm
09:45 PM 48.6°F9.2°C 41.0°F5.0°C 75% 12.0 mph ESE19.3 kmh ESE 25.0 mph40.2 kmh 29.28 in991.5 mb 0.00 in0.0 mm 0.00 in0.0 mm 0.00 in0.0 mm
10:00 PM 48.4°F9.1°C 40.8°F4.9°C 75% 10.0 mph ESE16.1 kmh ESE 19.0 mph30.6 kmh 29.27 in991.2 mb 0.00 in0.0 mm 0.00 in0.0 mm 0.00 in0.0 mm
10:15 PM 48.4°F9.1°C 40.8°F4.9°C 75% 13.0 mph SE20.9 kmh SE 24.0 mph38.6 kmh 29.27 in991.2 mb 0.00 in0.0 mm 0.00 in0.0 mm 0.00 in0.0 mm
10:30 PM 48.4°F9.1°C 40.8°F4.9°C 75% 13.0 mph SE20.9 kmh SE 25.0 mph40.2 kmh 29.26 in990.9 mb 0.00 in0.0 mm 0.00 in0.0 mm 0.00 in0.0 mm
10:45 PM 48.2°F9.0°C 40.3°F4.6°C 74% 11.0 mph SE17.7 kmh SE 21.0 mph33.8 kmh 29.25 in990.5 mb 0.00 in0.0 mm 0.00 in0.0 mm 0.00 in0.0 mm
11:00 PM 48.0°F8.9°C 40.1°F4.5°C 74% 11.0 mph ESE17.7 kmh ESE 23.0 mph37.0 kmh 29.24 in990.2 mb 0.00 in0.0 mm 0.00 in0.0 mm 0.00 in0.0 mm
11:15 PM 47.8°F8.8°C 40.3°F4.6°C 75% 12.0 mph SE19.3 kmh SE 24.0 mph38.6 kmh 29.23 in989.8 mb 0.00 in0.0 mm 0.00 in0.0 mm 0.00 in0.0 mm
11:30 PM 47.7°F8.7°C 40.5°F4.7°C 76% 13.0 mph SE20.9 kmh SE 27.0 mph43.5 kmh 29.23 in989.8 mb 0.00 in0.0 mm 0.00 in0.0 mm 0.00 in0.0 mm
11:45 PM 47.5°F8.6°C 40.3°F4.6°C 76% 12.0 mph ESE19.3 kmh ESE 29.0 mph46.7 kmh 29.22 in989.5 mb 0.00 in0.0 mm 0.00 in0.0 mm 0.00 in0.0 mm